sensor_id;sensor_type;location;lat;lon;timestamp;P1;durP1;ratioP1;P2;durP2;ratioP2
12334;SDS011;6233;51.560;9.986;2023-03-01T00:01:34;8.97;;;6.23;;
12334;SDS011;6233;51.560;9.986;2023-03-01T00:04:36;7.83;;;5.33;;
12334;SDS011;6233;51.560;9.986;2023-03-01T00:07:37;7.97;;;6.30;;
12334;SDS011;6233;51.560;9.986;2023-03-01T00:10:39;8.83;;;6.63;;
12334;SDS011;6233;51.560;9.986;2023-03-01T00:13:41;9.57;;;6.07;;
12334;SDS011;6233;51.560;9.986;2023-03-01T00:16:44;7.47;;;6.00;;
12334;SDS011;6233;51.560;9.986;2023-03-01T00:19:46;10.03;;;6.20;;
12334;SDS011;6233;51.560;9.986;2023-03-01T00:22:48;6.83;;;6.10;;
12334;SDS011;6233;51.560;9.986;2023-03-01T00:25:50;7.10;;;5.83;;
12334;SDS011;6233;51.560;9.986;2023-03-01T00:28:52;8.37;;;5.73;;
12334;SDS011;6233;51.560;9.986;2023-03-01T00:31:56;10.70;;;6.70;;
12334;SDS011;6233;51.560;9.986;2023-03-01T00:34:58;7.97;;;6.60;;
12334;SDS011;6233;51.560;9.986;2023-03-01T00:38:00;7.87;;;6.63;;
12334;SDS011;6233;51.560;9.986;2023-03-01T00:41:06;9.37;;;6.63;;
12334;SDS011;6233;51.560;9.986;2023-03-01T00:44:11;7.20;;;6.50;;
12334;SDS011;6233;51.560;9.986;2023-03-01T00:47:13;6.93;;;6.10;;
12334;SDS011;6233;51.560;9.986;2023-03-01T00:50:15;9.23;;;6.20;;
12334;SDS011;6233;51.560;9.986;2023-03-01T00:53:17;8.33;;;6.10;;
12334;SDS011;6233;51.560;9.986;2023-03-01T00:56:19;8.70;;;6.13;;
12334;SDS011;6233;51.560;9.986;2023-03-01T00:59:20;9.13;;;6.07;;
12334;SDS011;6233;51.560;9.986;2023-03-01T01:02:22;7.33;;;5.80;;
12334;SDS011;6233;51.560;9.986;2023-03-01T01:05:24;6.10;;;5.50;;
12334;SDS011;6233;51.560;9.986;2023-03-01T01:08:26;6.50;;;5.43;;
12334;SDS011;6233;51.560;9.986;2023-03-01T01:11:28;7.60;;;5.60;;
12334;SDS011;6233;51.560;9.986;2023-03-01T01:14:31;6.97;;;5.60;;
12334;SDS011;6233;51.560;9.986;2023-03-01T01:17:33;9.63;;;6.13;;
12334;SDS011;6233;51.560;9.986;2023-03-01T01:20:35;7.90;;;6.43;;
12334;SDS011;6233;51.560;9.986;2023-03-01T01:23:38;8.73;;;5.83;;
12334;SDS011;6233;51.560;9.986;2023-03-01T01:26:41;8.90;;;6.07;;
12334;SDS011;6233;51.560;9.986;2023-03-01T01:29:43;6.73;;;5.40;;
12334;SDS011;6233;51.560;9.986;2023-03-01T01:32:45;6.60;;;5.90;;
12334;SDS011;6233;51.560;9.986;2023-03-01T01:35:46;6.97;;;5.93;;
12334;SDS011;6233;51.560;9.986;2023-03-01T01:38:48;8.20;;;5.73;;
12334;SDS011;6233;51.560;9.986;2023-03-01T01:41:50;7.33;;;5.90;;
12334;SDS011;6233;51.560;9.986;2023-03-01T01:48:36;6.93;;;5.63;;
12334;SDS011;6233;51.560;9.986;2023-03-01T01:51:45;6.93;;;5.37;;
12334;SDS011;6233;51.560;9.986;2023-03-01T01:55:07;6.50;;;5.73;;
12334;SDS011;6233;51.560;9.986;2023-03-01T01:58:12;7.53;;;6.20;;
12334;SDS011;6233;51.560;9.986;2023-03-01T02:01:19;7.73;;;5.97;;
12334;SDS011;6233;51.560;9.986;2023-03-01T02:04:21;6.87;;;5.70;;
12334;SDS011;6233;51.560;9.986;2023-03-01T02:07:23;6.43;;;5.37;;
12334;SDS011;6233;51.560;9.986;2023-03-01T02:10:26;9.03;;;5.63;;
12334;SDS011;6233;51.560;9.986;2023-03-01T02:13:30;7.47;;;5.77;;
12334;SDS011;6233;51.560;9.986;2023-03-01T02:16:33;9.13;;;6.03;;
12334;SDS011;6233;51.560;9.986;2023-03-01T02:23:11;6.00;;;5.40;;
12334;SDS011;6233;51.560;9.986;2023-03-01T02:26:28;7.23;;;5.93;;
12334;SDS011;6233;51.560;9.986;2023-03-01T02:29:43;8.10;;;6.00;;
12334;SDS011;6233;51.560;9.986;2023-03-01T02:32:45;7.73;;;6.13;;
12334;SDS011;6233;51.560;9.986;2023-03-01T02:35:48;8.60;;;6.20;;
12334;SDS011;6233;51.560;9.986;2023-03-01T02:38:51;7.47;;;5.97;;
12334;SDS011;6233;51.560;9.986;2023-03-01T02:41:57;6.63;;;5.67;;
12334;SDS011;6233;51.560;9.986;2023-03-01T02:45:00;6.67;;;5.43;;
12334;SDS011;6233;51.560;9.986;2023-03-01T02:48:01;6.97;;;5.47;;
12334;SDS011;6233;51.560;9.986;2023-03-01T02:51:11;7.87;;;6.10;;
12334;SDS011;6233;51.560;9.986;2023-03-01T02:54:30;7.90;;;6.33;;
12334;SDS011;6233;51.560;9.986;2023-03-01T02:57:43;7.17;;;5.40;;
12334;SDS011;6233;51.560;9.986;2023-03-01T03:00:46;6.37;;;5.27;;
12334;SDS011;6233;51.560;9.986;2023-03-01T03:03:50;7.53;;;6.10;;
12334;SDS011;6233;51.560;9.986;2023-03-01T03:06:52;6.83;;;5.57;;
12334;SDS011;6233;51.560;9.986;2023-03-01T03:09:53;8.37;;;5.47;;
12334;SDS011;6233;51.560;9.986;2023-03-01T03:12:56;7.03;;;5.47;;
12334;SDS011;6233;51.560;9.986;2023-03-01T03:16:03;7.83;;;5.90;;
12334;SDS011;6233;51.560;9.986;2023-03-01T03:19:05;8.83;;;5.83;;
12334;SDS011;6233;51.560;9.986;2023-03-01T03:22:07;8.47;;;5.60;;
12334;SDS011;6233;51.560;9.986;2023-03-01T03:25:10;7.00;;;5.47;;
12334;SDS011;6233;51.560;9.986;2023-03-01T03:28:11;7.53;;;5.37;;
12334;SDS011;6233;51.560;9.986;2023-03-01T03:31:13;7.23;;;5.67;;
12334;SDS011;6233;51.560;9.986;2023-03-01T03:34:15;7.10;;;5.43;;
12334;SDS011;6233;51.560;9.986;2023-03-01T03:37:19;8.47;;;5.80;;
12334;SDS011;6233;51.560;9.986;2023-03-01T03:40:39;9.07;;;5.90;;
12334;SDS011;6233;51.560;9.986;2023-03-01T03:43:42;6.97;;;5.97;;
12334;SDS011;6233;51.560;9.986;2023-03-01T03:46:44;6.30;;;4.90;;
12334;SDS011;6233;51.560;9.986;2023-03-01T03:49:46;6.47;;;5.27;;
12334;SDS011;6233;51.560;9.986;2023-03-01T03:52:48;5.83;;;4.97;;
12334;SDS011;6233;51.560;9.986;2023-03-01T03:55:50;7.20;;;5.40;;
12334;SDS011;6233;51.560;9.986;2023-03-01T03:58:52;9.40;;;5.70;;
12334;SDS011;6233;51.560;9.986;2023-03-01T04:01:54;8.67;;;6.00;;
12334;SDS011;6233;51.560;9.986;2023-03-01T04:04:56;6.97;;;6.07;;
12334;SDS011;6233;51.560;9.986;2023-03-01T04:07:58;6.77;;;5.20;;
12334;SDS011;6233;51.560;9.986;2023-03-01T04:11:03;8.27;;;5.43;;
12334;SDS011;6233;51.560;9.986;2023-03-01T04:14:24;7.27;;;5.00;;
12334;SDS011;6233;51.560;9.986;2023-03-01T04:17:26;7.20;;;5.30;;
12334;SDS011;6233;51.560;9.986;2023-03-01T04:20:29;7.17;;;5.40;;
12334;SDS011;6233;51.560;9.986;2023-03-01T04:23:34;6.60;;;5.90;;
12334;SDS011;6233;51.560;9.986;2023-03-01T04:26:37;8.50;;;5.60;;
12334;SDS011;6233;51.560;9.986;2023-03-01T04:29:38;6.80;;;5.83;;
12334;SDS011;6233;51.560;9.986;2023-03-01T04:32:40;7.10;;;5.97;;
12334;SDS011;6233;51.560;9.986;2023-03-01T04:35:42;6.40;;;5.23;;
12334;SDS011;6233;51.560;9.986;2023-03-01T04:38:44;10.07;;;5.73;;
12334;SDS011;6233;51.560;9.986;2023-03-01T04:41:49;10.13;;;6.07;;
12334;SDS011;6233;51.560;9.986;2023-03-01T04:44:51;8.00;;;6.10;;
12334;SDS011;6233;51.560;9.986;2023-03-01T04:47:53;6.77;;;5.50;;
12334;SDS011;6233;51.560;9.986;2023-03-01T04:50:55;8.20;;;5.83;;
12334;SDS011;6233;51.560;9.986;2023-03-01T04:53:57;9.10;;;6.07;;
12334;SDS011;6233;51.560;9.986;2023-03-01T04:56:59;7.23;;;5.70;;
12334;SDS011;6233;51.560;9.986;2023-03-01T05:00:01;7.53;;;5.27;;
12334;SDS011;6233;51.560;9.986;2023-03-01T05:03:20;9.73;;;5.40;;
12334;SDS011;6233;51.560;9.986;2023-03-01T05:06:22;7.30;;;5.53;;
12334;SDS011;6233;51.560;9.986;2023-03-01T05:09:24;8.80;;;6.43;;
12334;SDS011;6233;51.560;9.986;2023-03-01T05:12:26;8.97;;;5.53;;
12334;SDS011;6233;51.560;9.986;2023-03-01T05:15:28;6.47;;;5.07;;
12334;SDS011;6233;51.560;9.986;2023-03-01T05:18:32;11.40;;;6.03;;
12334;SDS011;6233;51.560;9.986;2023-03-01T05:21:35;6.47;;;5.40;;
12334;SDS011;6233;51.560;9.986;2023-03-01T05:24:58;7.83;;;5.20;;
12334;SDS011;6233;51.560;9.986;2023-03-01T05:28:01;7.83;;;5.57;;
12334;SDS011;6233;51.560;9.986;2023-03-01T05:31:05;8.47;;;5.60;;
12334;SDS011;6233;51.560;9.986;2023-03-01T05:34:10;7.00;;;5.30;;
12334;SDS011;6233;51.560;9.986;2023-03-01T05:37:14;6.90;;;5.80;;
12334;SDS011;6233;51.560;9.986;2023-03-01T05:40:17;8.10;;;5.40;;
12334;SDS011;6233;51.560;9.986;2023-03-01T05:43:21;7.57;;;5.83;;
12334;SDS011;6233;51.560;9.986;2023-03-01T05:46:23;9.17;;;5.50;;
12334;SDS011;6233;51.560;9.986;2023-03-01T05:49:25;8.60;;;5.80;;
12334;SDS011;6233;51.560;9.986;2023-03-01T05:52:27;9.53;;;5.80;;
12334;SDS011;6233;51.560;9.986;2023-03-01T05:55:29;7.33;;;5.57;;
12334;SDS011;6233;51.560;9.986;2023-03-01T05:58:32;7.23;;;5.37;;
12334;SDS011;6233;51.560;9.986;2023-03-01T06:01:34;7.27;;;5.67;;
12334;SDS011;6233;51.560;9.986;2023-03-01T06:04:36;8.73;;;5.77;;
12334;SDS011;6233;51.560;9.986;2023-03-01T06:07:38;7.77;;;5.60;;
12334;SDS011;6233;51.560;9.986;2023-03-01T06:10:40;7.47;;;5.63;;
12334;SDS011;6233;51.560;9.986;2023-03-01T06:13:42;6.40;;;5.13;;
12334;SDS011;6233;51.560;9.986;2023-03-01T06:16:45;10.30;;;6.40;;
12334;SDS011;6233;51.560;9.986;2023-03-01T06:19:46;8.00;;;5.23;;
12334;SDS011;6233;51.560;9.986;2023-03-01T06:22:48;8.07;;;5.50;;
12334;SDS011;6233;51.560;9.986;2023-03-01T06:25:51;8.23;;;5.23;;
12334;SDS011;6233;51.560;9.986;2023-03-01T06:28:53;7.30;;;5.30;;
12334;SDS011;6233;51.560;9.986;2023-03-01T06:31:54;7.47;;;5.53;;
12334;SDS011;6233;51.560;9.986;2023-03-01T06:34:56;6.57;;;5.37;;
12334;SDS011;6233;51.560;9.986;2023-03-01T06:38:00;6.10;;;5.17;;
12334;SDS011;6233;51.560;9.986;2023-03-01T06:41:03;6.67;;;5.20;;
12334;SDS011;6233;51.560;9.986;2023-03-01T06:44:05;7.53;;;4.90;;
12334;SDS011;6233;51.560;9.986;2023-03-01T06:47:06;8.17;;;5.23;;
12334;SDS011;6233;51.560;9.986;2023-03-01T06:50:08;6.77;;;5.47;;
12334;SDS011;6233;51.560;9.986;2023-03-01T06:53:10;5.73;;;4.47;;
12334;SDS011;6233;51.560;9.986;2023-03-01T06:56:12;6.57;;;4.77;;
12334;SDS011;6233;51.560;9.986;2023-03-01T06:59:14;8.70;;;5.20;;
12334;SDS011;6233;51.560;9.986;2023-03-01T07:02:16;6.50;;;4.77;;
12334;SDS011;6233;51.560;9.986;2023-03-01T07:05:18;7.40;;;4.73;;
12334;SDS011;6233;51.560;9.986;2023-03-01T07:08:21;5.97;;;4.80;;
12334;SDS011;6233;51.560;9.986;2023-03-01T07:11:23;7.93;;;5.20;;
12334;SDS011;6233;51.560;9.986;2023-03-01T07:14:25;6.23;;;4.60;;
12334;SDS011;6233;51.560;9.986;2023-03-01T07:17:27;7.03;;;4.70;;
12334;SDS011;6233;51.560;9.986;2023-03-01T07:20:29;11.63;;;5.30;;
12334;SDS011;6233;51.560;9.986;2023-03-01T07:23:31;5.53;;;4.77;;
12334;SDS011;6233;51.560;9.986;2023-03-01T07:26:33;6.63;;;4.87;;
12334;SDS011;6233;51.560;9.986;2023-03-01T07:29:35;6.73;;;5.07;;
12334;SDS011;6233;51.560;9.986;2023-03-01T07:32:37;6.93;;;5.03;;
12334;SDS011;6233;51.560;9.986;2023-03-01T07:35:39;8.23;;;5.57;;
12334;SDS011;6233;51.560;9.986;2023-03-01T07:38:41;9.13;;;6.60;;
12334;SDS011;6233;51.560;9.986;2023-03-01T07:41:43;9.93;;;7.33;;
12334;SDS011;6233;51.560;9.986;2023-03-01T07:44:44;7.83;;;5.47;;
12334;SDS011;6233;51.560;9.986;2023-03-01T07:47:46;8.07;;;6.30;;
12334;SDS011;6233;51.560;9.986;2023-03-01T07:50:48;9.07;;;7.03;;
12334;SDS011;6233;51.560;9.986;2023-03-01T07:53:49;7.93;;;5.67;;
12334;SDS011;6233;51.560;9.986;2023-03-01T07:56:51;7.73;;;5.50;;
12334;SDS011;6233;51.560;9.986;2023-03-01T07:59:53;7.90;;;6.00;;
12334;SDS011;6233;51.560;9.986;2023-03-01T08:02:54;7.77;;;5.80;;
12334;SDS011;6233;51.560;9.986;2023-03-01T08:06:05;7.97;;;6.17;;
12334;SDS011;6233;51.560;9.986;2023-03-01T08:09:08;8.57;;;6.10;;
12334;SDS011;6233;51.560;9.986;2023-03-01T08:12:10;6.90;;;5.77;;
12334;SDS011;6233;51.560;9.986;2023-03-01T08:15:12;8.17;;;6.30;;
12334;SDS011;6233;51.560;9.986;2023-03-01T08:18:14;11.30;;;6.90;;
12334;SDS011;6233;51.560;9.986;2023-03-01T08:21:18;10.20;;;6.07;;
12334;SDS011;6233;51.560;9.986;2023-03-01T08:24:20;7.63;;;6.13;;
12334;SDS011;6233;51.560;9.986;2023-03-01T08:27:22;10.47;;;7.53;;
12334;SDS011;6233;51.560;9.986;2023-03-01T08:30:24;10.00;;;6.40;;
12334;SDS011;6233;51.560;9.986;2023-03-01T08:33:26;12.50;;;7.10;;
12334;SDS011;6233;51.560;9.986;2023-03-01T08:36:32;8.23;;;6.47;;
12334;SDS011;6233;51.560;9.986;2023-03-01T08:39:36;7.57;;;6.47;;
12334;SDS011;6233;51.560;9.986;2023-03-01T08:42:38;10.70;;;6.80;;
12334;SDS011;6233;51.560;9.986;2023-03-01T08:45:48;8.63;;;6.30;;
12334;SDS011;6233;51.560;9.986;2023-03-01T08:48:49;9.07;;;6.53;;
12334;SDS011;6233;51.560;9.986;2023-03-01T08:51:51;8.93;;;6.30;;
12334;SDS011;6233;51.560;9.986;2023-03-01T08:55:04;8.03;;;6.03;;
12334;SDS011;6233;51.560;9.986;2023-03-01T08:58:06;9.87;;;6.57;;
12334;SDS011;6233;51.560;9.986;2023-03-01T09:01:09;7.33;;;6.20;;
12334;SDS011;6233;51.560;9.986;2023-03-01T09:04:12;7.93;;;5.60;;
12334;SDS011;6233;51.560;9.986;2023-03-01T09:07:15;7.80;;;5.93;;
12334;SDS011;6233;51.560;9.986;2023-03-01T09:10:17;9.47;;;7.57;;
12334;SDS011;6233;51.560;9.986;2023-03-01T09:13:19;9.20;;;6.30;;
12334;SDS011;6233;51.560;9.986;2023-03-01T09:16:21;8.30;;;6.20;;
12334;SDS011;6233;51.560;9.986;2023-03-01T09:19:23;8.30;;;6.10;;
12334;SDS011;6233;51.560;9.986;2023-03-01T09:22:27;9.10;;;6.27;;
12334;SDS011;6233;51.560;9.986;2023-03-01T09:25:29;11.57;;;6.93;;
12334;SDS011;6233;51.560;9.986;2023-03-01T09:28:30;10.40;;;7.17;;
12334;SDS011;6233;51.560;9.986;2023-03-01T09:31:33;9.40;;;6.17;;
12334;SDS011;6233;51.560;9.986;2023-03-01T09:34:34;8.80;;;7.00;;
12334;SDS011;6233;51.560;9.986;2023-03-01T09:37:56;9.73;;;7.13;;
12334;SDS011;6233;51.560;9.986;2023-03-01T09:40:58;7.83;;;6.27;;
12334;SDS011;6233;51.560;9.986;2023-03-01T09:44:10;9.27;;;6.60;;
12334;SDS011;6233;51.560;9.986;2023-03-01T09:47:16;11.13;;;7.73;;
12334;SDS011;6233;51.560;9.986;2023-03-01T09:50:32;9.40;;;7.30;;
12334;SDS011;6233;51.560;9.986;2023-03-01T09:53:37;8.07;;;6.50;;
12334;SDS011;6233;51.560;9.986;2023-03-01T09:56:40;10.33;;;7.60;;
12334;SDS011;6233;51.560;9.986;2023-03-01T10:03:33;10.73;;;7.27;;
12334;SDS011;6233;51.560;9.986;2023-03-01T10:06:41;10.87;;;7.73;;
12334;SDS011;6233;51.560;9.986;2023-03-01T10:09:52;9.93;;;7.23;;
12334;SDS011;6233;51.560;9.986;2023-03-01T10:12:54;9.43;;;7.90;;
12334;SDS011;6233;51.560;9.986;2023-03-01T10:16:01;10.73;;;7.73;;
12334;SDS011;6233;51.560;9.986;2023-03-01T10:19:12;9.17;;;7.50;;
12334;SDS011;6233;51.560;9.986;2023-03-01T10:22:22;10.73;;;7.57;;
12334;SDS011;6233;51.560;9.986;2023-03-01T10:28:53;13.90;;;7.70;;
12334;SDS011;6233;51.560;9.986;2023-03-01T10:32:03;9.13;;;7.77;;
12334;SDS011;6233;51.560;9.986;2023-03-01T10:35:18;11.03;;;7.60;;
12334;SDS011;6233;51.560;9.986;2023-03-01T10:38:30;10.97;;;8.00;;
12334;SDS011;6233;51.560;9.986;2023-03-01T10:41:32;10.03;;;7.97;;
12334;SDS011;6233;51.560;9.986;2023-03-01T10:44:42;10.90;;;8.30;;
12334;SDS011;6233;51.560;9.986;2023-03-01T10:47:45;10.63;;;8.40;;
12334;SDS011;6233;51.560;9.986;2023-03-01T10:50:48;11.23;;;7.63;;
12334;SDS011;6233;51.560;9.986;2023-03-01T10:53:52;9.97;;;7.63;;
12334;SDS011;6233;51.560;9.986;2023-03-01T10:56:54;8.47;;;6.23;;
12334;SDS011;6233;51.560;9.986;2023-03-01T11:00:18;10.03;;;6.93;;
12334;SDS011;6233;51.560;9.986;2023-03-01T11:06:41;8.50;;;6.37;;
12334;SDS011;6233;51.560;9.986;2023-03-01T11:09:44;10.23;;;6.13;;
12334;SDS011;6233;51.560;9.986;2023-03-01T11:12:45;7.27;;;5.87;;
12334;SDS011;6233;51.560;9.986;2023-03-01T11:16:04;10.30;;;6.20;;
12334;SDS011;6233;51.560;9.986;2023-03-01T11:22:12;10.40;;;6.60;;
12334;SDS011;6233;51.560;9.986;2023-03-01T11:25:19;7.47;;;6.10;;
12334;SDS011;6233;51.560;9.986;2023-03-01T11:28:29;8.47;;;6.30;;
12334;SDS011;6233;51.560;9.986;2023-03-01T11:31:31;7.23;;;5.77;;
12334;SDS011;6233;51.560;9.986;2023-03-01T11:44:21;8.17;;;6.53;;
12334;SDS011;6233;51.560;9.986;2023-03-01T11:50:49;9.17;;;6.97;;
12334;SDS011;6233;51.560;9.986;2023-03-01T11:54:13;11.03;;;6.33;;
12334;SDS011;6233;51.560;9.986;2023-03-01T12:08:08;10.50;;;7.27;;
12334;SDS011;6233;51.560;9.986;2023-03-01T12:17:31;9.43;;;7.40;;
12334;SDS011;6233;51.560;9.986;2023-03-01T12:31:08;8.43;;;7.03;;
12334;SDS011;6233;51.560;9.986;2023-03-01T12:50:59;7.77;;;6.50;;
12334;SDS011;6233;51.560;9.986;2023-03-01T12:54:10;9.20;;;7.03;;
12334;SDS011;6233;51.560;9.986;2023-03-01T13:00:32;10.37;;;6.53;;
12334;SDS011;6233;51.560;9.986;2023-03-01T13:10:33;10.13;;;6.83;;
12334;SDS011;6233;51.560;9.986;2023-03-01T13:13:42;10.20;;;7.37;;
12334;SDS011;6233;51.560;9.986;2023-03-01T13:16:44;8.23;;;6.30;;
12334;SDS011;6233;51.560;9.986;2023-03-01T13:19:55;9.33;;;6.47;;
12334;SDS011;6233;51.560;9.986;2023-03-01T13:23:02;9.00;;;6.47;;
12334;SDS011;6233;51.560;9.986;2023-03-01T13:26:17;10.47;;;6.50;;
12334;SDS011;6233;51.560;9.986;2023-03-01T13:29:28;8.77;;;6.47;;
12334;SDS011;6233;51.560;9.986;2023-03-01T13:32:48;8.40;;;5.73;;
12334;SDS011;6233;51.560;9.986;2023-03-01T13:35:50;8.83;;;6.13;;
12334;SDS011;6233;51.560;9.986;2023-03-01T13:41:59;9.23;;;6.50;;
12334;SDS011;6233;51.560;9.986;2023-03-01T13:45:02;7.40;;;6.20;;
12334;SDS011;6233;51.560;9.986;2023-03-01T13:48:09;7.23;;;5.83;;
12334;SDS011;6233;51.560;9.986;2023-03-01T13:51:24;7.57;;;5.60;;
12334;SDS011;6233;51.560;9.986;2023-03-01T13:54:29;8.87;;;5.60;;
12334;SDS011;6233;51.560;9.986;2023-03-01T13:57:33;7.03;;;5.80;;
12334;SDS011;6233;51.560;9.986;2023-03-01T14:00:37;9.83;;;6.00;;
12334;SDS011;6233;51.560;9.986;2023-03-01T14:03:41;7.73;;;5.80;;
12334;SDS011;6233;51.560;9.986;2023-03-01T14:06:45;6.13;;;5.23;;
12334;SDS011;6233;51.560;9.986;2023-03-01T14:09:48;10.87;;;5.97;;
12334;SDS011;6233;51.560;9.986;2023-03-01T14:13:08;8.20;;;5.87;;
12334;SDS011;6233;51.560;9.986;2023-03-01T14:19:54;7.93;;;5.40;;
12334;SDS011;6233;51.560;9.986;2023-03-01T14:22:59;6.70;;;5.47;;
12334;SDS011;6233;51.560;9.986;2023-03-01T14:26:10;9.23;;;5.77;;
12334;SDS011;6233;51.560;9.986;2023-03-01T14:32:38;7.20;;;5.50;;
12334;SDS011;6233;51.560;9.986;2023-03-01T14:35:40;8.50;;;6.13;;
12334;SDS011;6233;51.560;9.986;2023-03-01T14:38:43;9.37;;;6.20;;
12334;SDS011;6233;51.560;9.986;2023-03-01T14:41:47;8.17;;;6.37;;
12334;SDS011;6233;51.560;9.986;2023-03-01T14:44:50;7.00;;;5.67;;
12334;SDS011;6233;51.560;9.986;2023-03-01T14:47:53;8.50;;;6.10;;
12334;SDS011;6233;51.560;9.986;2023-03-01T14:50:56;7.13;;;5.40;;
12334;SDS011;6233;51.560;9.986;2023-03-01T14:53:58;9.43;;;6.70;;
12334;SDS011;6233;51.560;9.986;2023-03-01T14:57:00;8.23;;;5.53;;
12334;SDS011;6233;51.560;9.986;2023-03-01T15:00:03;9.93;;;5.80;;
12334;SDS011;6233;51.560;9.986;2023-03-01T15:03:10;6.60;;;5.80;;
12334;SDS011;6233;51.560;9.986;2023-03-01T15:06:19;7.10;;;5.83;;
12334;SDS011;6233;51.560;9.986;2023-03-01T15:09:22;9.47;;;6.13;;
12334;SDS011;6233;51.560;9.986;2023-03-01T15:12:32;8.30;;;5.63;;
12334;SDS011;6233;51.560;9.986;2023-03-01T15:15:43;8.00;;;6.33;;
12334;SDS011;6233;51.560;9.986;2023-03-01T15:18:55;9.23;;;6.83;;
12334;SDS011;6233;51.560;9.986;2023-03-01T15:22:01;6.10;;;5.10;;
12334;SDS011;6233;51.560;9.986;2023-03-01T15:25:34;8.60;;;5.23;;
12334;SDS011;6233;51.560;9.986;2023-03-01T15:28:37;6.40;;;5.50;;
12334;SDS011;6233;51.560;9.986;2023-03-01T15:31:52;6.50;;;5.00;;
12334;SDS011;6233;51.560;9.986;2023-03-01T15:35:01;8.13;;;4.73;;
12334;SDS011;6233;51.560;9.986;2023-03-01T15:41:54;6.50;;;4.83;;
12334;SDS011;6233;51.560;9.986;2023-03-01T15:48:21;6.17;;;4.80;;
12334;SDS011;6233;51.560;9.986;2023-03-01T15:51:28;5.20;;;4.03;;
12334;SDS011;6233;51.560;9.986;2023-03-01T15:54:31;6.37;;;4.37;;
12334;SDS011;6233;51.560;9.986;2023-03-01T15:57:33;5.57;;;3.97;;
12334;SDS011;6233;51.560;9.986;2023-03-01T16:00:35;5.33;;;4.13;;
12334;SDS011;6233;51.560;9.986;2023-03-01T16:03:37;6.10;;;4.00;;
12334;SDS011;6233;51.560;9.986;2023-03-01T16:06:39;5.23;;;4.10;;
12334;SDS011;6233;51.560;9.986;2023-03-01T16:09:41;4.93;;;4.03;;
12334;SDS011;6233;51.560;9.986;2023-03-01T16:12:44;6.90;;;4.33;;
12334;SDS011;6233;51.560;9.986;2023-03-01T16:15:48;6.33;;;4.37;;
12334;SDS011;6233;51.560;9.986;2023-03-01T16:18:50;4.70;;;4.03;;
12334;SDS011;6233;51.560;9.986;2023-03-01T16:21:55;6.30;;;4.13;;
12334;SDS011;6233;51.560;9.986;2023-03-01T16:24:57;6.27;;;4.53;;
12334;SDS011;6233;51.560;9.986;2023-03-01T16:27:59;5.93;;;4.37;;
12334;SDS011;6233;51.560;9.986;2023-03-01T16:31:05;6.33;;;4.77;;
12334;SDS011;6233;51.560;9.986;2023-03-01T16:34:07;5.13;;;4.23;;
12334;SDS011;6233;51.560;9.986;2023-03-01T16:37:09;6.20;;;4.60;;
12334;SDS011;6233;51.560;9.986;2023-03-01T16:43:18;6.77;;;4.37;;
12334;SDS011;6233;51.560;9.986;2023-03-01T16:46:24;6.60;;;4.63;;
12334;SDS011;6233;51.560;9.986;2023-03-01T16:49:29;6.20;;;4.63;;
12334;SDS011;6233;51.560;9.986;2023-03-01T16:52:31;6.43;;;4.40;;
12334;SDS011;6233;51.560;9.986;2023-03-01T16:55:35;6.97;;;4.73;;
12334;SDS011;6233;51.560;9.986;2023-03-01T16:58:37;6.07;;;4.77;;
12334;SDS011;6233;51.560;9.986;2023-03-01T17:01:40;7.07;;;4.67;;
12334;SDS011;6233;51.560;9.986;2023-03-01T17:04:44;7.83;;;4.93;;
12334;SDS011;6233;51.560;9.986;2023-03-01T17:07:46;6.37;;;5.07;;
12334;SDS011;6233;51.560;9.986;2023-03-01T17:10:48;6.17;;;4.73;;
12334;SDS011;6233;51.560;9.986;2023-03-01T17:13:50;7.27;;;4.70;;
12334;SDS011;6233;51.560;9.986;2023-03-01T17:16:52;6.60;;;4.77;;
12334;SDS011;6233;51.560;9.986;2023-03-01T17:19:54;7.90;;;5.07;;
12334;SDS011;6233;51.560;9.986;2023-03-01T17:22:55;5.73;;;4.47;;
12334;SDS011;6233;51.560;9.986;2023-03-01T17:25:57;8.37;;;5.00;;
12334;SDS011;6233;51.560;9.986;2023-03-01T17:28:59;9.33;;;6.37;;
12334;SDS011;6233;51.560;9.986;2023-03-01T17:32:01;6.80;;;5.20;;
12334;SDS011;6233;51.560;9.986;2023-03-01T17:35:04;5.23;;;4.70;;
12334;SDS011;6233;51.560;9.986;2023-03-01T17:38:08;6.73;;;4.90;;
12334;SDS011;6233;51.560;9.986;2023-03-01T17:41:09;7.23;;;5.30;;
12334;SDS011;6233;51.560;9.986;2023-03-01T17:44:12;7.80;;;5.73;;
12334;SDS011;6233;51.560;9.986;2023-03-01T17:47:13;6.60;;;5.30;;
12334;SDS011;6233;51.560;9.986;2023-03-01T17:50:15;8.23;;;5.40;;
12334;SDS011;6233;51.560;9.986;2023-03-01T17:53:17;6.90;;;5.30;;
12334;SDS011;6233;51.560;9.986;2023-03-01T17:56:19;8.73;;;5.27;;
12334;SDS011;6233;51.560;9.986;2023-03-01T17:59:21;6.63;;;5.07;;
12334;SDS011;6233;51.560;9.986;2023-03-01T18:02:22;7.07;;;5.67;;
12334;SDS011;6233;51.560;9.986;2023-03-01T18:05:26;8.13;;;5.57;;
12334;SDS011;6233;51.560;9.986;2023-03-01T18:08:31;6.00;;;5.07;;
12334;SDS011;6233;51.560;9.986;2023-03-01T18:11:34;7.93;;;5.33;;
12334;SDS011;6233;51.560;9.986;2023-03-01T18:14:36;9.50;;;6.10;;
12334;SDS011;6233;51.560;9.986;2023-03-01T18:17:38;8.30;;;5.73;;
12334;SDS011;6233;51.560;9.986;2023-03-01T18:20:39;8.20;;;6.00;;
12334;SDS011;6233;51.560;9.986;2023-03-01T18:23:41;6.33;;;5.60;;
12334;SDS011;6233;51.560;9.986;2023-03-01T18:26:43;7.90;;;5.40;;
12334;SDS011;6233;51.560;9.986;2023-03-01T18:29:45;7.40;;;5.33;;
12334;SDS011;6233;51.560;9.986;2023-03-01T18:32:46;8.33;;;5.57;;
12334;SDS011;6233;51.560;9.986;2023-03-01T18:35:48;8.40;;;5.87;;
12334;SDS011;6233;51.560;9.986;2023-03-01T18:38:52;6.83;;;5.57;;
12334;SDS011;6233;51.560;9.986;2023-03-01T18:41:56;6.70;;;5.23;;
12334;SDS011;6233;51.560;9.986;2023-03-01T18:44:58;6.57;;;4.83;;
12334;SDS011;6233;51.560;9.986;2023-03-01T18:48:00;9.13;;;5.57;;
12334;SDS011;6233;51.560;9.986;2023-03-01T18:51:09;6.47;;;5.23;;
12334;SDS011;6233;51.560;9.986;2023-03-01T18:54:12;8.23;;;5.20;;
12334;SDS011;6233;51.560;9.986;2023-03-01T18:57:14;7.27;;;5.47;;
12334;SDS011;6233;51.560;9.986;2023-03-01T19:00:16;7.60;;;5.73;;
12334;SDS011;6233;51.560;9.986;2023-03-01T19:03:18;7.87;;;5.50;;
12334;SDS011;6233;51.560;9.986;2023-03-01T19:06:21;7.33;;;5.20;;
12334;SDS011;6233;51.560;9.986;2023-03-01T19:09:23;7.33;;;5.20;;
12334;SDS011;6233;51.560;9.986;2023-03-01T19:12:25;8.50;;;5.63;;
12334;SDS011;6233;51.560;9.986;2023-03-01T19:15:29;7.57;;;5.57;;
12334;SDS011;6233;51.560;9.986;2023-03-01T19:18:31;11.10;;;5.70;;
12334;SDS011;6233;51.560;9.986;2023-03-01T19:21:34;9.23;;;5.67;;
12334;SDS011;6233;51.560;9.986;2023-03-01T19:24:36;9.13;;;6.13;;
12334;SDS011;6233;51.560;9.986;2023-03-01T19:27:38;8.53;;;6.07;;
12334;SDS011;6233;51.560;9.986;2023-03-01T19:30:39;7.50;;;5.60;;
12334;SDS011;6233;51.560;9.986;2023-03-01T19:33:41;7.33;;;5.63;;
12334;SDS011;6233;51.560;9.986;2023-03-01T19:36:43;7.67;;;5.97;;
12334;SDS011;6233;51.560;9.986;2023-03-01T19:39:45;8.53;;;5.40;;
12334;SDS011;6233;51.560;9.986;2023-03-01T19:42:48;6.80;;;5.57;;
12334;SDS011;6233;51.560;9.986;2023-03-01T19:45:50;8.97;;;5.70;;
12334;SDS011;6233;51.560;9.986;2023-03-01T19:48:54;6.57;;;5.13;;
12334;SDS011;6233;51.560;9.986;2023-03-01T19:51:58;7.13;;;5.53;;
12334;SDS011;6233;51.560;9.986;2023-03-01T19:55:00;9.00;;;5.20;;
12334;SDS011;6233;51.560;9.986;2023-03-01T19:58:10;7.43;;;5.17;;
12334;SDS011;6233;51.560;9.986;2023-03-01T20:01:13;7.60;;;5.37;;
12334;SDS011;6233;51.560;9.986;2023-03-01T20:04:16;6.33;;;5.00;;
12334;SDS011;6233;51.560;9.986;2023-03-01T20:07:18;10.13;;;5.60;;
12334;SDS011;6233;51.560;9.986;2023-03-01T20:10:20;5.77;;;5.07;;
12334;SDS011;6233;51.560;9.986;2023-03-01T20:13:22;6.50;;;5.10;;
12334;SDS011;6233;51.560;9.986;2023-03-01T20:16:24;9.17;;;5.73;;
12334;SDS011;6233;51.560;9.986;2023-03-01T20:19:27;6.73;;;5.33;;
12334;SDS011;6233;51.560;9.986;2023-03-01T20:22:28;8.37;;;5.73;;
12334;SDS011;6233;51.560;9.986;2023-03-01T20:25:30;8.23;;;5.87;;
12334;SDS011;6233;51.560;9.986;2023-03-01T20:28:32;8.07;;;5.43;;
12334;SDS011;6233;51.560;9.986;2023-03-01T20:31:35;8.47;;;5.97;;
12334;SDS011;6233;51.560;9.986;2023-03-01T20:34:38;8.10;;;5.53;;